Time;durP1;ratioP1;P1;durP2;ratioP2;P2;SDS_P1;SDS_P2;PMS_P1;PMS_P2;Temp;Humidity;BMP_temperature;BMP_pressure;BME280_temperature;BME280_humidity;BME280_pressure;Samples;Min_cycle;Max_cycle;Signal;HPM_P1;HPM_P2
2023/01/08 00:02:02;;;;;;;;;;;;;;;-18.10;73.30;101168.72;5009437;28;19929;-62
2023/01/08 00:04:28;;;;;;;;;;;;;;;-18.01;73.09;101164.91;5042865;28;19933;-63
2023/01/08 00:06:54;;;;;;;;;;;;;;;-17.93;73.07;101162.88;5043075;28;20422;-64
2023/01/08 00:09:20;;;;;;;;;;;;;;;-17.88;73.21;101165.28;5024477;28;19952;-62
2023/01/08 00:11:48;;;;;;;;;;;;;;;-17.88;72.92;101163.53;5044518;28;19962;-63
2023/01/08 00:14:13;;;;;;;;;;;;;;;-17.87;72.99;101164.38;5044958;28;19951;-63
2023/01/08 00:16:39;;;;;;;;;;;;;;;-17.86;73.22;101163.47;5026828;28;20379;-63
2023/01/08 00:19:06;;;;;;;;;;;;;;;-17.89;73.25;101164.44;5043274;28;20451;-63
2023/01/08 00:21:32;;;;;;;;;;;;;;;-17.96;72.93;101176.88;5029154;28;19975;-66
2023/01/08 00:23:58;;;;;;;;;;;;;;;-18.05;72.95;101164.19;5010158;28;19933;-66
2023/01/08 00:26:24;;;;;;;;;;;;;;;-17.96;73.03;101168.19;5044477;28;20326;-66
2023/01/08 00:28:50;;;;;;;;;;;;;;;-17.94;72.82;101170.75;5026069;28;19929;-66
2023/01/08 00:31:16;;;;;;;;;;;;;;;-17.92;73.21;101168.91;5011325;28;20130;-66
2023/01/08 00:33:42;;;;;;;;;;;;;;;-17.91;72.80;101176.72;5043570;28;20048;-66
2023/01/08 00:36:11;;;;;;;;;;;;;;;-17.89;72.84;101176.63;5045318;28;19939;-66
2023/01/08 00:38:37;;;;;;;;;;;;;;;-17.87;72.94;101180.03;5004645;28;19932;-66
2023/01/08 00:41:02;;;;;;;;;;;;;;;-17.87;72.82;101180.91;5022903;28;20032;-66
2023/01/08 00:43:28;;;;;;;;;;;;;;;-17.85;72.90;101183.47;5023065;28;20028;-66
2023/01/08 00:45:54;;;;;;;;;;;;;;;-17.81;73.01;101179.84;5025595;28;19929;-64
2023/01/08 00:48:23;;;;;;;;;;;;;;;-17.75;73.12;101182.19;5007390;28;19929;-67
2023/01/08 00:50:49;;;;;;;;;;;;;;;-17.73;72.37;101177.75;5041967;28;19952;-66
2023/01/08 00:53:16;;;;;;;;;;;;;;;-17.74;72.67;101180.44;5043344;28;20469;-66
2023/01/08 00:55:42;;;;;;;;;;;;;;;-17.73;72.74;101179.53;5044918;28;20034;-67
2023/01/08 00:58:08;;;;;;;;;;;;;;;-17.72;72.99;101181.25;5040820;28;20057;-66
2023/01/08 01:00:34;;;;;;;;;;;;;;;-17.73;72.87;101179.53;5027359;28;20311;-67
2023/01/08 01:03:00;;;;;;;;;;;;;;;-17.74;72.86;101180.44;5024429;28;19974;-67
2023/01/08 01:05:25;;;;;;;;;;;;;;;-17.72;72.96;101183.84;5022929;28;19928;-67
2023/01/08 01:07:51;;;;;;;;;;;;;;;-17.71;73.35;101177.72;5027434;28;19929;-66
2023/01/08 01:10:19;;;;;;;;;;;;;;;-17.67;73.01;101184.53;5028726;28;19933;-67
2023/01/08 01:12:45;;;;;;;;;;;;;;;-17.64;72.82;101176.56;5044370;28;19928;-67
2023/01/08 01:15:12;;;;;;;;;;;;;;;-17.64;73.05;101178.34;5045401;28;20470;-67
2023/01/08 01:17:38;;;;;;;;;;;;;;;-17.62;73.15;101179.13;5024072;28;20277;-67
2023/01/08 01:20:05;;;;;;;;;;;;;;;-17.65;72.64;101181.88;5023502;28;19982;-67
2023/01/08 01:22:31;;;;;;;;;;;;;;;-17.64;72.91;101173.94;5026679;28;20418;-63
2023/01/08 01:24:57;;;;;;;;;;;;;;;-17.66;72.84;101175.78;5042090;28;20403;-63
2023/01/08 01:27:25;;;;;;;;;;;;;;;-17.65;73.03;101185.31;5007996;28;20024;-63
2023/01/08 01:29:50;;;;;;;;;;;;;;;-17.65;72.90;101180.09;5025319;28;20318;-63
2023/01/08 01:32:16;;;;;;;;;;;;;;;-17.61;73.14;101179.06;5041018;28;20031;-63
2023/01/08 01:34:42;;;;;;;;;;;;;;;-17.56;73.04;101179.75;5025686;28;19929;-64
2023/01/08 01:37:08;;;;;;;;;;;;;;;-17.51;73.06;101171.72;5024712;28;19928;-63
2023/01/08 01:39:34;;;;;;;;;;;;;;;-17.45;72.56;101175.88;5037395;28;19955;-62
2023/01/08 01:42:00;;;;;;;;;;;;;;;-17.46;72.76;101174.16;5042038;28;19928;-63
2023/01/08 01:44:36;;;;;;;;;;;;;;;-17.46;72.43;101171.56;5008177;28;19929;-62
2023/01/08 01:47:04;;;;;;;;;;;;;;;-17.49;72.30;101182.09;5025022;28;19929;-63
2023/01/08 01:49:31;;;;;;;;;;;;;;;-17.51;72.64;101179.56;5041664;28;19935;-62
2023/01/08 01:52:01;;;;;;;;;;;;;;;-17.54;72.29;101183.16;5023772;28;20391;-63
2023/01/08 01:54:28;;;;;;;;;;;;;;;-17.55;72.79;101184.06;5008665;28;20388;-63
2023/01/08 01:56:54;;;;;;;;;;;;;;;-17.54;72.76;101188.38;5008717;28;20350;-63
2023/01/08 01:59:20;;;;;;;;;;;;;;;-17.48;72.95;101189.91;5022966;28;19929;-63
2023/01/08 02:01:48;;;;;;;;;;;;;;;-17.48;72.96;101179.44;4991241;28;19987;-66
2023/01/08 02:04:14;;;;;;;;;;;;;;;-17.48;72.42;101176.81;5044955;28;20753;-66
2023/01/08 02:06:41;;;;;;;;;;;;;;;-17.50;72.57;101180.41;5044509;28;19929;-67
2023/01/08 02:09:12;;;;;;;;;;;;;;;-17.52;73.12;101174.38;5047409;28;19938;-66
2023/01/08 02:11:41;;;;;;;;;;;;;;;-17.58;73.02;101173.72;5046079;28;20000;-66
2023/01/08 02:14:11;;;;;;;;;;;;;;;-17.61;72.88;101170.38;5029439;28;20190;-66
2023/01/08 02:16:42;;;;;;;;;;;;;;;-17.56;73.04;101174.50;5046691;28;19936;-66
2023/01/08 02:19:13;;;;;;;;;;;;;;;-17.54;72.77;101182.31;5046510;28;20039;-66
2023/01/08 02:21:46;;;;;;;;;;;;;;;-17.55;73.02;101178.81;5027069;28;20267;-66
2023/01/08 02:24:16;;;;;;;;;;;;;;;-17.53;72.56;101189.25;5047070;28;19928;-66
2023/01/08 02:26:44;;;;;;;;;;;;;;;-17.55;72.83;101191.91;5009797;28;20335;-66
2023/01/08 02:29:13;;;;;;;;;;;;;;;-17.56;72.86;101184.97;5044866;28;19990;-66
2023/01/08 02:31:40;;;;;;;;;;;;;;;-17.55;73.29;101178.81;5028208;28;19933;-66
2023/01/08 02:34:07;;;;;;;;;;;;;;;-17.57;72.99;101177.19;5046222;28;20209;-63
2023/01/08 02:36:35;;;;;;;;;;;;;;;-17.53;72.96;101173.56;5027739;28;20349;-63
2023/01/08 02:39:07;;;;;;;;;;;;;;;-17.47;73.10;101181.16;5029990;28;19928;-63
2023/01/08 02:41:40;;;;;;;;;;;;;;;-17.46;73.19;101180.22;5008955;28;20461;-66
2023/01/08 02:44:10;;;;;;;;;;;;;;;-17.43;73.03;101180.09;5019560;28;19976;-66
2023/01/08 02:46:37;;;;;;;;;;;;;;;-17.40;73.08;101182.63;5027715;28;20411;-66
2023/01/08 02:49:05;;;;;;;;;;;;;;;-17.42;72.78;101184.41;5029626;28;19932;-69
2023/01/08 02:51:34;;;;;;;;;;;;;;;-17.35;73.04;101177.19;5028591;28;19935;-66
2023/01/08 02:54:01;;;;;;;;;;;;;;;-17.24;72.92;101182.00;5029413;28;19939;-63
2023/01/08 02:56:30;;;;;;;;;;;;;;;-17.17;72.96;101169.50;5046711;28;20077;-63
2023/01/08 02:58:57;;;;;;;;;;;;;;;-17.09;73.00;101170.06;5046694;28;19960;-64
2023/01/08 03:01:24;;;;;;;;;;;;;;;-17.03;72.81;101176.81;5012696;28;20035;-67
2023/01/08 03:03:52;;;;;;;;;;;;;;;-17.00;72.58;101176.69;5011960;28;19933;-67
2023/01/08 03:06:20;;;;;;;;;;;;;;;-16.94;72.79;101175.56;5006939;28;19968;-67
2023/01/08 03:08:47;;;;;;;;;;;;;;;-16.90;72.50;101171.88;5043753;28;20131;-67
2023/01/08 03:11:13;;;;;;;;;;;;;;;-16.92;72.29;101166.72;5026445;28;20430;-67
2023/01/08 03:13:42;;;;;;;;;;;;;;;-16.97;72.01;101159.06;5045325;28;19935;-67
2023/01/08 03:16:11;;;;;;;;;;;;;;;-16.98;72.68;101165.22;5047826;28;19968;-67
2023/01/08 03:18:41;;;;;;;;;;;;;;;-17.03;72.49;101161.13;5026832;28;19928;-67
2023/01/08 03:21:08;;;;;;;;;;;;;;;-17.11;72.84;101170.13;5028061;28;19968;-67
2023/01/08 03:23:35;;;;;;;;;;;;;;;-17.32;72.92;101148.31;5045232;28;19933;-67
2023/01/08 03:26:02;;;;;;;;;;;;;;;-17.19;73.24;101182.69;5044243;28;19964;-67
2023/01/08 03:28:31;;;;;;;;;;;;;;;-17.25;73.13;101182.91;5043888;28;19929;-66
2023/01/08 03:30:58;;;;;;;;;;;;;;;-17.25;73.07;101186.38;5009557;28;19928;-67
2023/01/08 03:33:24;;;;;;;;;;;;;;;-17.26;73.17;101189.91;5011616;28;19971;-67
2023/01/08 03:35:53;;;;;;;;;;;;;;;-17.29;73.18;101189.16;5009948;28;20423;-67
2023/01/08 03:38:21;;;;;;;;;;;;;;;-17.18;72.97;101191.34;5038074;28;20395;-67
2023/01/08 03:40:51;;;;;;;;;;;;;;;-17.09;73.02;101184.91;5028807;28;19932;-66
2023/01/08 03:43:17;;;;;;;;;;;;;;;-17.07;72.75;101183.94;5044717;28;19937;-67
2023/01/08 03:45:46;;;;;;;;;;;;;;;-17.04;72.95;101181.19;5027188;28;19929;-67
2023/01/08 03:48:12;;;;;;;;;;;;;;;-16.99;72.69;101181.88;5025482;28;19947;-67
2023/01/08 03:50:38;;;;;;;;;;;;;;;-16.90;72.72;101183.22;5044530;28;19955;-67
2023/01/08 03:53:06;;;;;;;;;;;;;;;-16.80;72.63;101191.53;5044166;28;20023;-67
2023/01/08 03:55:32;;;;;;;;;;;;;;;-16.73;72.71;101182.50;5028827;28;19982;-67
2023/01/08 03:57:58;;;;;;;;;;;;;;;-16.75;72.19;101192.19;5043816;28;19928;-67
2023/01/08 04:00:24;;;;;;;;;;;;;;;-16.77;72.27;101188.78;5025855;28;19928;-67
2023/01/08 04:02:49;;;;;;;;;;;;;;;-16.74;72.50;101190.44;5029795;28;20024;-67
2023/01/08 04:05:15;;;;;;;;;;;;;;;-16.64;72.37;101196.97;5043342;28;19932;-67
2023/01/08 04:07:41;;;;;;;;;;;;;;;-16.57;72.09;101197.56;5042512;28;20529;-67
2023/01/08 04:10:08;;;;;;;;;;;;;;;-16.56;71.80;101186.16;5026406;28;20035;-69
2023/01/08 04:12:34;;;;;;;;;;;;;;;-16.56;71.93;101188.78;5026551;28;20007;-67
2023/01/08 04:15:00;;;;;;;;;;;;;;;-16.48;71.90;101186.72;5044481;28;20367;-67
2023/01/08 04:17:26;;;;;;;;;;;;;;;-16.42;71.97;101182.97;5008033;28;20362;-66
2023/01/08 04:19:52;;;;;;;;;;;;;;;-16.47;71.79;101185.78;5026258;28;19929;-66
2023/01/08 04:22:18;;;;;;;;;;;;;;;-16.54;71.90;101182.56;5044390;28;19929;-66
2023/01/08 04:24:44;;;;;;;;;;;;;;;-16.53;71.95;101193.91;5045997;28;19936;-66
2023/01/08 04:27:11;;;;;;;;;;;;;;;-16.55;71.89;101185.25;5026261;28;20031;-63
2023/01/08 04:29:37;;;;;;;;;;;;;;;-16.60;72.25;101190.72;5022264;28;19928;-63
2023/01/08 04:32:03;;;;;;;;;;;;;;;-16.59;72.24;101179.31;5024245;28;19998;-64
2023/01/08 04:34:28;;;;;;;;;;;;;;;-16.62;72.36;101182.06;5024809;28;20461;-63
2023/01/08 04:36:54;;;;;;;;;;;;;;;-16.70;72.42;101176.28;5044761;28;19929;-63
2023/01/08 04:39:20;;;;;;;;;;;;;;;-16.72;72.70;101173.72;5024170;28;19929;-63
2023/01/08 04:41:45;;;;;;;;;;;;;;;-16.73;72.59;101166.78;5023127;28;20231;-63
2023/01/08 04:44:13;;;;;;;;;;;;;;;-16.69;72.86;101167.53;5040439;28;19928;-63
2023/01/08 04:46:39;;;;;;;;;;;;;;;-16.67;72.76;101170.91;5026435;28;19973;-63
2023/01/08 04:49:04;;;;;;;;;;;;;;;-16.66;73.03;101170.00;5043209;28;19939;-63
2023/01/08 04:51:30;;;;;;;;;;;;;;;-16.63;72.84;101171.66;5006899;28;19936;-63
2023/01/08 04:53:56;;;;;;;;;;;;;;;-16.62;72.88;101171.59;5032866;28;20299;-66
2023/01/08 04:56:22;;;;;;;;;;;;;;;-16.59;73.12;101173.22;5024884;28;19955;-63
2023/01/08 04:58:48;;;;;;;;;;;;;;;-16.59;72.71;101176.69;5025849;28;19960;-63
2023/01/08 05:01:18;;;;;;;;;;;;;;;-16.57;73.00;101168.75;5044330;28;20583;-62
2023/01/08 05:03:44;;;;;;;;;;;;;;;-16.61;73.14;101169.81;5023965;28;19932;-63
2023/01/08 05:06:09;;;;;;;;;;;;;;;-16.66;73.17;101172.63;5043433;28;19979;-64
2023/01/08 05:08:35;;;;;;;;;;;;;;;-16.67;73.08;101173.53;5043895;28;19929;-62
2023/01/08 05:11:02;;;;;;;;;;;;;;;-16.65;73.13;101179.56;4991153;28;19936;-64
2023/01/08 05:13:28;;;;;;;;;;;;;;;-16.63;73.08;101182.97;5007546;28;19928;-63
2023/01/08 05:15:54;;;;;;;;;;;;;;;-16.60;73.01;101177.63;5007549;28;20318;-63
2023/01/08 05:18:21;;;;;;;;;;;;;;;-16.51;73.17;101184.22;5042839;28;20361;-63
2023/01/08 05:20:47;;;;;;;;;;;;;;;-16.48;73.04;101181.47;5042431;28;19933;-63
2023/01/08 05:23:13;;;;;;;;;;;;;;;-16.44;72.97;101177.78;5008933;28;19928;-63
2023/01/08 05:25:38;;;;;;;;;;;;;;;-16.43;72.82;101176.88;5026086;28;20407;-64
2023/01/08 05:28:04;;;;;;;;;;;;;;;-16.43;72.95;101178.66;5038707;28;20634;-63
2023/01/08 05:30:30;;;;;;;;;;;;;;;-16.44;72.90;101174.34;5045250;28;20287;-64
2023/01/08 05:32:55;;;;;;;;;;;;;;;-16.48;73.41;101177.97;5026973;28;19932;-67
2023/01/08 05:35:24;;;;;;;;;;;;;;;-16.54;73.18;101187.81;5025916;28;19933;-63
2023/01/08 05:37:51;;;;;;;;;;;;;;;-16.48;73.60;101185.84;5008979;28;19986;-63
2023/01/08 05:40:16;;;;;;;;;;;;;;;-16.43;73.32;101189.13;5044515;28;19933;-62
2023/01/08 05:42:42;;;;;;;;;;;;;;;-16.40;73.31;101189.00;5042525;28;19971;-63
2023/01/08 05:45:08;;;;;;;;;;;;;;;-16.37;73.37;101196.72;5043251;28;19935;-63
2023/01/08 05:47:34;;;;;;;;;;;;;;;-16.37;73.43;101194.09;5022250;28;20018;-63
2023/01/08 05:50:00;;;;;;;;;;;;;;;-16.36;73.74;101187.09;5031173;28;19935;-63
2023/01/08 05:52:28;;;;;;;;;;;;;;;-16.33;73.56;101179.09;5038466;28;20051;-63
2023/01/08 05:54:53;;;;;;;;;;;;;;;-16.30;73.42;101176.34;5025241;28;19982;-63
2023/01/08 05:57:19;;;;;;;;;;;;;;;-16.29;73.33;101178.91;5008321;28;19932;-63
2023/01/08 05:59:45;;;;;;;;;;;;;;;-16.26;73.45;101176.16;5027745;28;20379;-63
2023/01/08 06:02:11;;;;;;;;;;;;;;;-16.29;73.23;101164.94;5026670;28;19952;-64
2023/01/08 06:04:37;;;;;;;;;;;;;;;-16.32;73.31;101178.19;5028801;28;20043;-63
2023/01/08 06:07:03;;;;;;;;;;;;;;;-16.30;73.17;101173.72;5012674;28;19928;-66
2023/01/08 06:09:30;;;;;;;;;;;;;;;-16.30;73.22;101174.59;5046482;28;19986;-66
2023/01/08 06:11:56;;;;;;;;;;;;;;;-16.32;73.58;101172.94;5024378;28;19932;-66
2023/01/08 06:14:22;;;;;;;;;;;;;;;-16.33;73.70;101168.63;5043147;28;20402;-66
2023/01/08 06:16:48;;;;;;;;;;;;;;;-16.33;73.74;101168.63;5025509;28;20051;-66
2023/01/08 06:19:14;;;;;;;;;;;;;;;-16.32;73.55;101171.16;5023610;28;19928;-66
2023/01/08 06:21:42;;;;;;;;;;;;;;;-16.37;73.33;101164.44;5026962;28;20198;-67
2023/01/08 06:24:09;;;;;;;;;;;;;;;-16.43;73.51;101168.19;5026978;28;19933;-66
2023/01/08 06:26:36;;;;;;;;;;;;;;;-16.45;73.77;101164.78;5023618;28;19933;-67
2023/01/08 06:29:03;;;;;;;;;;;;;;;-16.47;73.78;101164.84;5049170;28;20346;-63
2023/01/08 06:31:31;;;;;;;;;;;;;;;-16.44;73.74;101171.72;5030881;28;20361;-67
2023/01/08 06:33:57;;;;;;;;;;;;;;;-16.42;73.97;101172.50;5041015;28;19932;-66
2023/01/08 06:36:23;;;;;;;;;;;;;;;-16.42;73.96;101177.72;5010053;28;20168;-66
2023/01/08 06:38:49;;;;;;;;;;;;;;;-16.58;73.86;101149.59;5043176;28;20523;-66
2023/01/08 06:41:15;;;;;;;;;;;;;;;-16.38;74.15;101178.47;4680280;28;10000228;-66
2023/01/08 06:43:42;;;;;;;;;;;;;;;-16.35;74.30;101178.31;4991555;28;19964;-66
2023/01/08 06:46:08;;;;;;;;;;;;;;;-16.29;74.15;101185.91;5045105;28;19928;-63
2023/01/08 06:48:34;;;;;;;;;;;;;;;-16.24;74.14;101194.41;5043674;28;19929;-66
2023/01/08 06:51:00;;;;;;;;;;;;;;;-16.22;73.91;101191.72;5013303;28;19994;-65
2023/01/08 06:53:26;;;;;;;;;;;;;;;-16.13;74.29;101178.22;5005628;28;19932;-63
2023/01/08 06:55:55;;;;;;;;;;;;;;;-16.07;73.60;101167.47;5030222;28;20026;-65
2023/01/08 06:58:21;;;;;;;;;;;;;;;-16.12;73.38;101180.75;5045460;28;19929;-66
2023/01/08 07:00:48;;;;;;;;;;;;;;;-16.11;73.57;101186.88;5043725;28;19928;-63
2023/01/08 07:03:15;;;;;;;;;;;;;;;-16.06;73.80;101187.50;5025148;28;19955;-63
2023/01/08 07:05:40;;;;;;;;;;;;;;;-16.03;73.59;101189.97;5040892;28;20480;-65
2023/01/08 07:08:09;;;;;;;;;;;;;;;-15.96;73.93;101198.44;5035144;28;19935;-63
2023/01/08 07:10:35;;;;;;;;;;;;;;;-15.95;73.06;101199.28;5006540;28;19961;-63
2023/01/08 07:13:01;;;;;;;;;;;;;;;-15.88;73.10;101203.28;5042866;28;20393;-63
2023/01/08 07:15:27;;;;;;;;;;;;;;;-15.93;72.98;101179.09;4978396;28;19963;-66
2023/01/08 07:17:54;;;;;;;;;;;;;;;-15.77;72.62;101210.66;4978647;28;20349;-66
2023/01/08 07:20:20;;;;;;;;;;;;;;;-15.77;72.27;101210.66;5000498;28;19940;-66
2023/01/08 07:22:45;;;;;;;;;;;;;;;-15.70;72.29;101209.47;4983853;28;19929;-65
2023/01/08 07:25:11;;;;;;;;;;;;;;;-15.74;71.79;101211.38;4999362;28;20356;-66
2023/01/08 07:27:38;;;;;;;;;;;;;;;-15.71;72.06;101218.28;4985186;28;20316;-63
2023/01/08 07:30:05;;;;;;;;;;;;;;;-15.70;71.93;101227.84;4999207;28;20808;-63
2023/01/08 07:32:31;;;;;;;;;;;;;;;-15.66;71.81;101226.78;4984074;28;20352;-65
2023/01/08 07:34:58;;;;;;;;;;;;;;;-15.66;71.73;101224.16;4983657;28;19930;-63
2023/01/08 07:37:24;;;;;;;;;;;;;;;-15.64;71.47;101227.53;4982167;28;19930;-63
2023/01/08 07:39:51;;;;;;;;;;;;;;;-15.56;71.64;101232.44;4985484;28;20036;-63
2023/01/08 07:42:18;;;;;;;;;;;;;;;-15.62;71.29;101202.09;4981179;28;20012;-63
2023/01/08 07:44:43;;;;;;;;;;;;;;;-15.46;70.99;101238.09;4962993;28;20153;-63
2023/01/08 07:47:09;;;;;;;;;;;;;;;-15.46;70.51;101232.88;4984355;28;20039;-63
2023/01/08 07:49:35;;;;;;;;;;;;;;;-15.51;70.70;101240.97;4984243;28;19972;-66
2023/01/08 07:52:03;;;;;;;;;;;;;;;-15.61;70.48;101247.56;4998635;28;20413;-66
2023/01/08 07:54:28;;;;;;;;;;;;;;;-15.73;70.83;101247.19;4979371;28;20168;-67
2023/01/08 07:56:54;;;;;;;;;;;;;;;-15.74;71.08;101252.50;4964706;28;19930;-67
2023/01/08 07:59:20;;;;;;;;;;;;;;;-15.71;70.97;101247.94;4999902;28;20523;-67
2023/01/08 08:01:46;;;;;;;;;;;;;;;-15.73;70.96;101248.97;4982147;28;20052;-67
2023/01/08 08:04:13;;;;;;;;;;;;;;;-15.68;71.18;101247.84;4969366;28;19985;-67
2023/01/08 08:06:39;;;;;;;;;;;;;;;-15.49;70.82;101248.75;4980496;28;19941;-67
2023/01/08 08:09:07;;;;;;;;;;;;;;;-15.44;70.39;101246.78;4999026;28;19929;-67
2023/01/08 08:11:32;;;;;;;;;;;;;;;-15.42;70.38;101245.78;4984027;28;20392;-67
2023/01/08 08:13:58;;;;;;;;;;;;;;;-15.47;70.35;101242.53;4979738;28;19984;-66
2023/01/08 08:16:24;;;;;;;;;;;;;;;-15.49;70.32;101244.38;4981222;28;20338;-67
2023/01/08 08:18:51;;;;;;;;;;;;;;;-15.50;70.32;101239.19;4981908;28;19929;-67
2023/01/08 08:21:17;;;;;;;;;;;;;;;-15.37;70.39;101242.06;4983776;28;19930;-63
2023/01/08 08:23:42;;;;;;;;;;;;;;;-15.26;70.05;101237.19;4982334;28;19944;-63
2023/01/08 08:26:10;;;;;;;;;;;;;;;-15.13;69.66;101238.31;4979940;28;19933;-63
2023/01/08 08:28:35;;;;;;;;;;;;;;;-14.95;69.43;101232.25;4983208;28;19940;-64
2023/01/08 08:31:01;;;;;;;;;;;;;;;-14.84;68.71;101230.81;4986807;28;20380;-67
2023/01/08 08:33:27;;;;;;;;;;;;;;;-14.49;68.77;101235.22;4981770;28;20349;-67
2023/01/08 08:35:53;;;;;;;;;;;;;;;-13.71;68.03;101234.69;4983882;28;19940;-67
2023/01/08 08:38:19;;;;;;;;;;;;;;;-13.19;65.91;101224.00;4985140;28;19934;-67
2023/01/08 08:40:45;;;;;;;;;;;;;;;-13.11;63.61;101229.69;4965700;28;20036;-67
2023/01/08 08:43:12;;;;;;;;;;;;;;;-13.59;63.76;101229.72;4980429;28;19942;-67
2023/01/08 08:45:38;;;;;;;;;;;;;;;-14.07;64.24;101229.59;4985656;28;19963;-68
2023/01/08 08:48:05;;;;;;;;;;;;;;;-14.52;65.00;101229.25;4997416;28;20344;-66
2023/01/08 08:50:31;;;;;;;;;;;;;;;-14.78;66.12;101229.66;4978925;28;19930;-63
2023/01/08 08:52:57;;;;;;;;;;;;;;;-14.69;66.64;101223.91;4981958;28;19937;-63
2023/01/08 08:55:23;;;;;;;;;;;;;;;-14.61;66.67;101223.50;4984089;28;19929;-63
2023/01/08 08:57:49;;;;;;;;;;;;;;;-14.48;66.37;101226.41;4980774;28;19933;-63
2023/01/08 09:00:17;;;;;;;;;;;;;;;-14.10;65.90;101225.38;4983491;28;19936;-65
2023/01/08 09:02:42;;;;;;;;;;;;;;;-13.98;65.18;101226.50;4984025;28;19929;-63
2023/01/08 09:05:09;;;;;;;;;;;;;;;-13.82;65.36;101221.25;4983193;28;19960;-63
2023/01/08 09:07:34;;;;;;;;;;;;;;;-13.26;64.04;101215.59;4982585;28;20157;-64
2023/01/08 09:10:00;;;;;;;;;;;;;;;-13.22;63.47;101216.28;4979835;28;19936;-64
2023/01/08 09:12:26;;;;;;;;;;;;;;;-13.29;63.19;101211.34;4977668;28;19930;-63
2023/01/08 09:14:53;;;;;;;;;;;;;;;-13.14;63.25;101200.91;4976717;28;19930;-63
2023/01/08 09:17:20;;;;;;;;;;;;;;;-12.74;62.97;101201.25;4962287;28;19940;-63
2023/01/08 09:19:46;;;;;;;;;;;;;;;-12.74;62.31;101209.16;4964939;28;19930;-64
2023/01/08 09:22:12;;;;;;;;;;;;;;;-12.61;61.68;101209.28;4967505;28;20420;-64
2023/01/08 09:24:38;;;;;;;;;;;;;;;-12.42;61.71;101221.38;4980543;28;19936;-64
2023/01/08 09:27:04;;;;;;;;;;;;;;;-12.21;60.99;101218.44;4989177;28;19934;-68
2023/01/08 09:29:29;;;;;;;;;;;;;;;-12.38;61.34;101208.88;4967311;28;20416;-68
2023/01/08 09:31:58;;;;;;;;;;;;;;;-12.68;61.71;101208.81;4963600;28;20061;-64
2023/01/08 09:34:25;;;;;;;;;;;;;;;-12.83;61.81;101218.47;4964444;28;19980;-63
2023/01/08 09:36:51;;;;;;;;;;;;;;;-12.88;62.56;101215.22;4967506;28;20058;-67
2023/01/08 09:39:17;;;;;;;;;;;;;;;-12.82;62.95;101209.63;4964050;28;19958;-67
2023/01/08 09:41:44;;;;;;;;;;;;;;;-12.90;62.78;101214.47;4974487;28;19965;-65
2023/01/08 09:44:13;;;;;;;;;;;;;;;-12.78;63.00;101210.28;4958124;28;19930;-67
2023/01/08 09:46:40;;;;;;;;;;;;;;;-12.97;63.21;101206.06;4968020;28;19929;-67
2023/01/08 09:49:09;;;;;;;;;;;;;;;-13.34;63.87;101176.53;4987906;28;19936;-67
2023/01/08 09:51:37;;;;;;;;;;;;;;;-13.05;63.59;101210.91;4992546;28;19930;-67
2023/01/08 09:54:06;;;;;;;;;;;;;;;-12.86;64.12;101212.50;4979965;28;19937;-68
2023/01/08 09:56:33;;;;;;;;;;;;;;;-12.49;63.22;101212.16;4983904;28;19950;-68
2023/01/08 09:59:00;;;;;;;;;;;;;;;-12.41;62.92;101202.84;4983791;28;20467;-63
2023/01/08 10:01:27;;;;;;;;;;;;;;;-12.44;62.29;101203.03;4982874;28;19952;-63
2023/01/08 10:03:56;;;;;;;;;;;;;;;-12.45;62.70;101197.84;4982810;28;20040;-64
2023/01/08 10:06:22;;;;;;;;;;;;;;;-12.53;63.04;101206.22;4983731;28;19937;-63
2023/01/08 10:08:50;;;;;;;;;;;;;;;-12.66;63.21;101198.19;4981427;28;19930;-63
2023/01/08 10:11:17;;;;;;;;;;;;;;;-12.75;64.03;101188.16;4963437;28;20064;-67
2023/01/08 10:13:45;;;;;;;;;;;;;;;-12.82;64.09;101199.06;4984527;28;19936;-68
2023/01/08 10:16:17;;;;;;;;;;;;;;;-12.83;64.47;101209.69;4984658;28;19988;-67
2023/01/08 10:18:43;;;;;;;;;;;;;;;-12.92;64.78;101211.06;4989009;28;19933;-67
2023/01/08 10:21:12;;;;;;;;;;;;;;;-13.03;64.94;101218.72;4987104;28;19976;-64
2023/01/08 10:23:47;;;;;;;;;;;;;;;-13.15;65.14;101217.63;4985224;28;20032;-67
2023/01/08 10:26:23;;;;;;;;;;;;;;;-13.22;65.39;101211.84;4963905;28;20000;-67
2023/01/08 10:28:49;;;;;;;;;;;;;;;-13.25;65.88;101207.63;4983950;28;20453;-68
2023/01/08 10:31:15;;;;;;;;;;;;;;;-13.30;65.74;101208.81;4987901;28;19930;-67
2023/01/08 10:33:43;;;;;;;;;;;;;;;-13.33;66.09;101207.19;4989666;28;19930;-66
2023/01/08 10:36:10;;;;;;;;;;;;;;;-13.32;66.53;101211.53;4970028;28;20725;-67
2023/01/08 10:38:40;;;;;;;;;;;;;;;-13.32;66.37;101215.97;5002127;28;20000;-63
2023/01/08 10:41:09;;;;;;;;;;;;;;;-13.25;66.42;101210.25;4984684;28;19929;-67
2023/01/08 10:43:44;;;;;;;;;;;;;;;-12.93;66.29;101204.09;4637779;28;10000188;-63
2023/01/08 10:46:14;;;;;;;;;;;;;;;-12.61;65.25;101209.28;4980267;28;19934;-63
2023/01/08 10:48:45;;;;;;;;;;;;;;;-12.13;64.38;101202.97;4983475;28;19930;-63
2023/01/08 10:51:14;;;;;;;;;;;;;;;-11.73;63.23;101200.53;4976132;28;19937;-68
2023/01/08 10:53:40;;;;;;;;;;;;;;;-11.56;62.42;101201.25;4980015;28;20040;-67
2023/01/08 10:56:16;;;;;;;;;;;;;;;-11.18;61.05;101205.06;4981623;28;19930;-67
2023/01/08 10:58:43;;;;;;;;;;;;;;;-10.38;59.44;101206.00;4946429;28;19947;-67
2023/01/08 11:01:10;;;;;;;;;;;;;;;-9.96;58.24;101214.59;5000751;28;19933;-68
2023/01/08 11:03:36;;;;;;;;;;;;;;;-10.01;57.67;101206.13;4986849;28;19937;-68
2023/01/08 11:06:09;;;;;;;;;;;;;;;-9.82;57.59;101218.94;4983454;28;19976;-67
2023/01/08 11:08:35;;;;;;;;;;;;;;;-9.84;56.40;101208.44;4983564;28;19929;-67
2023/01/08 11:11:01;;;;;;;;;;;;;;;-10.21;57.27;101203.06;4980844;28;20333;-64
2023/01/08 11:13:28;;;;;;;;;;;;;;;-10.60;57.80;101208.31;4981042;28;19934;-68
2023/01/08 11:16:01;;;;;;;;;;;;;;;-10.84;58.79;101205.50;4981469;28;20357;-67
2023/01/08 11:18:27;;;;;;;;;;;;;;;-10.13;58.78;101202.53;4980886;28;19929;-67
2023/01/08 11:21:04;;;;;;;;;;;;;;;-9.75;56.59;101199.03;4986065;28;19937;-68
2023/01/08 11:23:30;;;;;;;;;;;;;;;-10.27;57.31;101192.91;4979678;28;19937;-68
2023/01/08 11:26:01;;;;;;;;;;;;;;;-10.30;57.92;101201.88;4986277;28;19930;-67
2023/01/08 11:28:32;;;;;;;;;;;;;;;-9.79;57.25;101194.06;4986314;28;19984;-67
2023/01/08 11:31:04;;;;;;;;;;;;;;;-10.12;56.56;101175.09;4968939;28;20014;-65
2023/01/08 11:33:32;;;;;;;;;;;;;;;-10.33;56.79;101196.81;4997804;28;19930;-64
2023/01/08 11:36:02;;;;;;;;;;;;;;;-10.68;57.41;101200.91;4985185;28;20397;-64
2023/01/08 11:38:28;;;;;;;;;;;;;;;-11.18;58.05;101211.16;4985042;28;19929;-63
2023/01/08 11:41:00;;;;;;;;;;;;;;;-11.57;59.07;101207.50;4999192;28;19936;-63
2023/01/08 11:43:29;;;;;;;;;;;;;;;-11.88;60.01;101206.75;4999524;28;19929;-67
2023/01/08 11:46:03;;;;;;;;;;;;;;;-11.77;60.62;101206.09;4982886;28;19938;-66
2023/01/08 11:48:46;;;;;;;;;;;;;;;-10.30;59.12;101206.31;4986538;28;19956;-68
2023/01/08 11:51:27;;;;;;;;;;;;;;;-9.57;55.29;101196.03;4981489;28;19930;-67
2023/01/08 11:53:58;;;;;;;;;;;;;;;-10.38;56.15;101193.59;4980321;28;20671;-64
2023/01/08 11:56:30;;;;;;;;;;;;;;;-11.03;57.25;101200.56;4985322;28;19930;-64
2023/01/08 11:59:03;;;;;;;;;;;;;;;-11.64;59.20;101203.50;4983753;28;19956;-64
2023/01/08 12:01:39;;;;;;;;;;;;;;;-12.14;60.19;101203.94;4999980;28;19933;-63
2023/01/08 12:04:20;;;;;;;;;;;;;;;-12.45;61.62;101206.63;4984840;28;19945;-66
2023/01/08 12:06:53;;;;;;;;;;;;;;;-12.62;62.09;101209.41;4966166;28;19940;-67
2023/01/08 12:09:25;;;;;;;;;;;;;;;-12.85;63.27;101201.88;4965451;28;19930;-63
2023/01/08 12:11:56;;;;;;;;;;;;;;;-13.04;63.68;101204.72;4981289;28;20289;-63
2023/01/08 12:14:37;;;;;;;;;;;;;;;-13.19;64.37;101210.84;4974496;28;20316;-63
2023/01/08 12:17:12;;;;;;;;;;;;;;;-13.26;64.99;101205.94;4981338;28;19930;-64
2023/01/08 12:19:48;;;;;;;;;;;;;;;-13.32;65.27;101208.91;4974004;28;20261;-63
2023/01/08 12:22:22;;;;;;;;;;;;;;;-13.36;65.50;101212.63;4980253;28;19952;-63
2023/01/08 12:24:57;;;;;;;;;;;;;;;-13.61;65.79;101182.44;4959246;28;19930;-67
2023/01/08 12:27:32;;;;;;;;;;;;;;;-13.41;66.50;101218.16;4981999;28;19930;-67
2023/01/08 12:30:08;;;;;;;;;;;;;;;-13.41;66.57;101209.41;4997203;28;19953;-67